sensor_id;sensor_type;location;lat;lon;timestamp;pressure;altitude;pressure_sealevel;temperature;humidity
26865;BME280;40618;51.166;10.322;2024-03-23T00:55:51;96572.44;;;8.70;78.72
26865;BME280;40618;51.166;10.322;2024-03-23T00:58:16;96577.03;;;8.62;78.80
26865;BME280;40618;51.166;10.322;2024-03-23T01:00:42;96578.09;;;8.56;78.67
26865;BME280;40618;51.166;10.322;2024-03-23T01:03:07;96573.78;;;8.57;78.70
26865;BME280;40618;51.166;10.322;2024-03-23T01:05:33;96570.16;;;8.62;78.69
26865;BME280;40618;51.166;10.322;2024-03-23T01:07:58;96560.47;;;8.68;78.36
26865;BME280;40618;51.166;10.322;2024-03-23T01:10:24;96558.66;;;8.71;78.56
26865;BME280;40618;51.166;10.322;2024-03-23T01:12:50;96560.34;;;8.72;78.74
26865;BME280;40618;51.166;10.322;2024-03-23T01:15:15;96563.00;;;8.69;77.90
26865;BME280;40618;51.166;10.322;2024-03-23T01:17:41;96557.25;;;8.62;77.93
26865;BME280;40618;51.166;10.322;2024-03-23T01:20:07;96558.25;;;8.58;77.96
26865;BME280;40618;51.166;10.322;2024-03-23T01:22:32;96557.47;;;8.56;78.30
26865;BME280;40618;51.166;10.322;2024-03-23T01:24:58;96555.84;;;8.54;78.55
26865;BME280;40618;51.166;10.322;2024-03-23T01:27:24;96557.03;;;8.45;77.80
26865;BME280;40618;51.166;10.322;2024-03-23T01:29:50;96549.69;;;8.33;77.74
26865;BME280;40618;51.166;10.322;2024-03-23T01:32:17;96549.00;;;8.27;77.30
26865;BME280;40618;51.166;10.322;2024-03-23T01:34:44;96523.97;;;8.29;77.86
26865;BME280;40618;51.166;10.322;2024-03-23T01:37:09;96515.41;;;8.29;77.95
26865;BME280;40618;51.166;10.322;2024-03-23T01:39:35;96501.16;;;8.19;77.32
26865;BME280;40618;51.166;10.322;2024-03-23T01:42:01;96490.13;;;8.15;78.22
26865;BME280;40618;51.166;10.322;2024-03-23T01:44:27;96491.69;;;8.19;77.74
26865;BME280;40618;51.166;10.322;2024-03-23T01:46:52;96500.16;;;8.23;77.63
26865;BME280;40618;51.166;10.322;2024-03-23T01:49:18;96503.59;;;8.23;77.60
26865;BME280;40618;51.166;10.322;2024-03-23T01:51:44;96510.31;;;8.27;77.59
26865;BME280;40618;51.166;10.322;2024-03-23T01:54:10;96508.41;;;8.33;77.27
26865;BME280;40618;51.166;10.322;2024-03-23T01:56:36;96492.94;;;8.33;77.52
26865;BME280;40618;51.166;10.322;2024-03-23T01:59:05;96474.22;;;8.27;77.39
26865;BME280;40618;51.166;10.322;2024-03-23T02:01:32;96466.91;;;8.15;77.19
26865;BME280;40618;51.166;10.322;2024-03-23T02:03:58;96460.25;;;8.09;77.82
26865;BME280;40618;51.166;10.322;2024-03-23T02:06:24;96468.13;;;8.05;77.46
26865;BME280;40618;51.166;10.322;2024-03-23T02:08:50;96456.38;;;7.97;77.52
26865;BME280;40618;51.166;10.322;2024-03-23T02:11:16;96451.38;;;7.93;77.77
26865;BME280;40618;51.166;10.322;2024-03-23T02:13:42;96449.59;;;7.95;77.84
26865;BME280;40618;51.166;10.322;2024-03-23T02:16:08;96446.81;;;8.01;78.02
26865;BME280;40618;51.166;10.322;2024-03-23T02:18:34;96439.94;;;8.00;77.73
26865;BME280;40618;51.166;10.322;2024-03-23T02:20:59;96437.25;;;8.03;78.24
26865;BME280;40618;51.166;10.322;2024-03-23T02:23:25;96438.06;;;8.05;78.13
26865;BME280;40618;51.166;10.322;2024-03-23T02:25:51;96429.59;;;8.02;77.87
26865;BME280;40618;51.166;10.322;2024-03-23T02:28:18;96430.66;;;7.96;77.75
26865;BME280;40618;51.166;10.322;2024-03-23T02:30:44;96446.50;;;7.85;77.62
26865;BME280;40618;51.166;10.322;2024-03-23T02:33:10;96434.34;;;7.89;78.01
26865;BME280;40618;51.166;10.322;2024-03-23T02:35:36;96423.88;;;7.93;78.42
26865;BME280;40618;51.166;10.322;2024-03-23T02:38:01;96422.91;;;7.96;77.83
26865;BME280;40618;51.166;10.322;2024-03-23T02:40:27;96420.66;;;7.87;77.49
26865;BME280;40618;51.166;10.322;2024-03-23T02:42:53;96404.56;;;7.80;78.00
26865;BME280;40618;51.166;10.322;2024-03-23T02:45:19;96402.75;;;7.84;78.40
26865;BME280;40618;51.166;10.322;2024-03-23T02:47:45;96400.09;;;7.85;77.55
26865;BME280;40618;51.166;10.322;2024-03-23T02:50:10;96400.03;;;7.87;77.70
26865;BME280;40618;51.166;10.322;2024-03-23T02:52:36;96392.31;;;7.87;78.17
26865;BME280;40618;51.166;10.322;2024-03-23T02:55:03;96388.84;;;7.88;78.20
26865;BME280;40618;51.166;10.322;2024-03-23T02:57:29;96404.13;;;7.92;78.09
26865;BME280;40618;51.166;10.322;2024-03-23T02:59:55;96418.66;;;7.95;78.26
26865;BME280;40618;51.166;10.322;2024-03-23T03:02:21;96418.59;;;7.96;77.67
26865;BME280;40618;51.166;10.322;2024-03-23T03:04:47;96405.75;;;7.95;77.34
26865;BME280;40618;51.166;10.322;2024-03-23T03:07:13;96380.88;;;7.94;78.27
26865;BME280;40618;51.166;10.322;2024-03-23T03:09:38;96388.59;;;7.94;78.26
26865;BME280;40618;51.166;10.322;2024-03-23T03:12:07;96387.59;;;7.98;78.04
26865;BME280;40618;51.166;10.322;2024-03-23T03:14:34;96409.34;;;7.91;77.66
26865;BME280;40618;51.166;10.322;2024-03-23T03:16:59;96395.00;;;7.84;78.46
26865;BME280;40618;51.166;10.322;2024-03-23T03:19:25;96388.09;;;7.84;78.25
26865;BME280;40618;51.166;10.322;2024-03-23T03:21:51;96371.75;;;7.85;78.42
26865;BME280;40618;51.166;10.322;2024-03-23T03:24:16;96370.38;;;7.76;77.78
26865;BME280;40618;51.166;10.322;2024-03-23T03:26:43;96364.72;;;7.65;78.46
26865;BME280;40618;51.166;10.322;2024-03-23T03:29:09;96363.47;;;7.52;77.60
26865;BME280;40618;51.166;10.322;2024-03-23T03:31:35;96346.47;;;7.48;78.25
26865;BME280;40618;51.166;10.322;2024-03-23T03:34:01;96339.59;;;7.48;78.43
26865;BME280;40618;51.166;10.322;2024-03-23T03:36:27;96345.31;;;7.56;78.27
26865;BME280;40618;51.166;10.322;2024-03-23T03:38:53;96341.66;;;7.62;78.48
26865;BME280;40618;51.166;10.322;2024-03-23T03:41:18;96338.03;;;7.68;78.34
26865;BME280;40618;51.166;10.322;2024-03-23T03:43:44;96328.47;;;7.71;78.49
26865;BME280;40618;51.166;10.322;2024-03-23T03:46:10;96320.84;;;7.68;78.21
26865;BME280;40618;51.166;10.322;2024-03-23T03:48:36;96320.56;;;7.52;78.61
26865;BME280;40618;51.166;10.322;2024-03-23T03:51:02;96315.41;;;7.52;78.56
26865;BME280;40618;51.166;10.322;2024-03-23T03:53:28;96321.19;;;7.59;78.85
26865;BME280;40618;51.166;10.322;2024-03-23T03:55:54;96309.75;;;7.66;78.51
26865;BME280;40618;51.166;10.322;2024-03-23T03:58:20;96294.06;;;7.72;78.24
26865;BME280;40618;51.166;10.322;2024-03-23T04:00:45;96282.84;;;7.73;78.83
26865;BME280;40618;51.166;10.322;2024-03-23T04:03:11;96275.13;;;7.73;78.59
26865;BME280;40618;51.166;10.322;2024-03-23T04:05:36;96270.63;;;7.78;78.65
26865;BME280;40618;51.166;10.322;2024-03-23T04:08:03;96272.38;;;7.78;78.99
26865;BME280;40618;51.166;10.322;2024-03-23T04:10:29;96268.13;;;7.77;79.05
26865;BME280;40618;51.166;10.322;2024-03-23T04:12:55;96257.75;;;7.78;78.82
26865;BME280;40618;51.166;10.322;2024-03-23T04:15:21;96266.31;;;7.79;78.54
26865;BME280;40618;51.166;10.322;2024-03-23T04:17:46;96264.66;;;7.78;78.66
26865;BME280;40618;51.166;10.322;2024-03-23T04:20:12;96242.47;;;7.74;79.13
26865;BME280;40618;51.166;10.322;2024-03-23T04:22:45;96236.47;;;7.73;78.78
26865;BME280;40618;51.166;10.322;2024-03-23T04:25:10;96232.16;;;7.74;79.10
26865;BME280;40618;51.166;10.322;2024-03-23T04:27:37;96234.00;;;7.70;78.15
26865;BME280;40618;51.166;10.322;2024-03-23T04:30:03;96234.13;;;7.67;78.41
26865;BME280;40618;51.166;10.322;2024-03-23T04:32:35;96238.69;;;7.60;79.06
26865;BME280;40618;51.166;10.322;2024-03-23T04:35:00;96238.06;;;7.54;79.11
26865;BME280;40618;51.166;10.322;2024-03-23T04:37:26;96234.06;;;7.47;78.23
26865;BME280;40618;51.166;10.322;2024-03-23T04:39:52;96231.75;;;7.39;78.93
26865;BME280;40618;51.166;10.322;2024-03-23T04:42:17;96231.00;;;7.35;78.89
26865;BME280;40618;51.166;10.322;2024-03-23T04:44:43;96245.88;;;7.28;79.05
26865;BME280;40618;51.166;10.322;2024-03-23T04:47:10;96256.50;;;7.19;78.46
26865;BME280;40618;51.166;10.322;2024-03-23T04:49:36;96244.72;;;7.12;79.22
26865;BME280;40618;51.166;10.322;2024-03-23T04:52:03;96240.53;;;7.09;79.61
26865;BME280;40618;51.166;10.322;2024-03-23T04:54:30;96225.09;;;7.09;78.85
26865;BME280;40618;51.166;10.322;2024-03-23T04:56:57;96236.28;;;7.08;79.27
26865;BME280;40618;51.166;10.322;2024-03-23T04:59:23;96236.41;;;7.05;79.04
26865;BME280;40618;51.166;10.322;2024-03-23T05:01:48;96230.69;;;6.97;79.21
26865;BME280;40618;51.166;10.322;2024-03-23T05:04:14;96231.72;;;6.91;79.66
26865;BME280;40618;51.166;10.322;2024-03-23T05:06:39;96220.66;;;6.89;79.22
26865;BME280;40618;51.166;10.322;2024-03-23T05:09:05;96219.84;;;6.87;79.56
26865;BME280;40618;51.166;10.322;2024-03-23T05:11:39;96214.72;;;6.87;79.31
26865;BME280;40618;51.166;10.322;2024-03-23T05:14:06;96219.03;;;6.87;80.06
26865;BME280;40618;51.166;10.322;2024-03-23T05:16:32;96225.00;;;6.87;79.34
26865;BME280;40618;51.166;10.322;2024-03-23T05:18:58;96224.28;;;6.84;80.01
26865;BME280;40618;51.166;10.322;2024-03-23T05:21:23;96209.94;;;6.76;79.30
26865;BME280;40618;51.166;10.322;2024-03-23T05:23:49;96216.19;;;6.69;79.30
26865;BME280;40618;51.166;10.322;2024-03-23T05:26:16;96212.00;;;6.67;79.80
26865;BME280;40618;51.166;10.322;2024-03-23T05:28:42;96201.66;;;6.68;79.85
26865;BME280;40618;51.166;10.322;2024-03-23T05:31:07;96219.75;;;6.65;79.91
26865;BME280;40618;51.166;10.322;2024-03-23T05:33:34;96219.88;;;6.62;80.25
26865;BME280;40618;51.166;10.322;2024-03-23T05:36:02;96218.19;;;6.61;80.27
26865;BME280;40618;51.166;10.322;2024-03-23T05:38:29;96228.59;;;6.58;79.84
26865;BME280;40618;51.166;10.322;2024-03-23T05:40:58;96233.09;;;6.51;79.63
26865;BME280;40618;51.166;10.322;2024-03-23T05:43:25;96234.88;;;6.49;80.16
26865;BME280;40618;51.166;10.322;2024-03-23T05:45:55;96232.47;;;6.44;80.12
26865;BME280;40618;51.166;10.322;2024-03-23T05:48:22;96245.44;;;6.41;80.09
26865;BME280;40618;51.166;10.322;2024-03-23T05:50:48;96248.06;;;6.40;79.71
26865;BME280;40618;51.166;10.322;2024-03-23T05:53:18;96249.75;;;6.39;79.91
26865;BME280;40618;51.166;10.322;2024-03-23T05:55:47;96256.16;;;6.28;79.99
26865;BME280;40618;51.166;10.322;2024-03-23T05:58:15;96251.25;;;6.20;79.55
26865;BME280;40618;51.166;10.322;2024-03-23T06:00:41;96255.59;;;6.18;80.09
26865;BME280;40618;51.166;10.322;2024-03-23T06:03:07;96266.25;;;6.05;79.60
26865;BME280;40618;51.166;10.322;2024-03-23T06:05:33;96252.88;;;5.94;80.02
26865;BME280;40618;51.166;10.322;2024-03-23T06:07:59;96251.41;;;5.87;79.91
26865;BME280;40618;51.166;10.322;2024-03-23T06:10:24;96259.28;;;5.81;79.87
26865;BME280;40618;51.166;10.322;2024-03-23T06:12:50;96258.59;;;5.75;79.73
26865;BME280;40618;51.166;10.322;2024-03-23T06:15:18;96270.06;;;5.64;79.79
26865;BME280;40618;51.166;10.322;2024-03-23T06:17:44;96283.97;;;5.56;79.60
26865;BME280;40618;51.166;10.322;2024-03-23T06:20:10;96279.81;;;5.52;79.86
26865;BME280;40618;51.166;10.322;2024-03-23T06:22:36;96286.13;;;5.40;79.58
26865;BME280;40618;51.166;10.322;2024-03-23T06:25:02;96302.59;;;5.33;79.61
26865;BME280;40618;51.166;10.322;2024-03-23T06:27:28;96305.66;;;5.15;79.20
26865;BME280;40618;51.166;10.322;2024-03-23T06:29:54;96307.09;;;4.92;79.17
26865;BME280;40618;51.166;10.322;2024-03-23T06:32:20;96325.53;;;4.73;79.62
26865;BME280;40618;51.166;10.322;2024-03-23T06:34:46;96325.88;;;4.60;80.07
26865;BME280;40618;51.166;10.322;2024-03-23T06:37:12;96330.44;;;4.47;79.47
26865;BME280;40618;51.166;10.322;2024-03-23T06:39:38;96339.88;;;4.46;79.96
26865;BME280;40618;51.166;10.322;2024-03-23T06:42:04;96328.78;;;4.46;79.51
26865;BME280;40618;51.166;10.322;2024-03-23T06:44:30;96343.38;;;4.42;79.44
26865;BME280;40618;51.166;10.322;2024-03-23T06:46:56;96346.97;;;4.35;79.79
26865;BME280;40618;51.166;10.322;2024-03-23T06:49:23;96351.25;;;4.34;79.54
26865;BME280;40618;51.166;10.322;2024-03-23T06:51:48;96349.66;;;4.29;79.83
26865;BME280;40618;51.166;10.322;2024-03-23T06:54:16;96353.22;;;4.23;79.63
26865;BME280;40618;51.166;10.322;2024-03-23T06:56:43;96349.88;;;4.19;79.57
26865;BME280;40618;51.166;10.322;2024-03-23T06:59:09;96357.63;;;4.16;79.88
26865;BME280;40618;51.166;10.322;2024-03-23T07:01:35;96360.31;;;4.12;80.17
26865;BME280;40618;51.166;10.322;2024-03-23T07:04:00;96361.19;;;4.11;80.08
26865;BME280;40618;51.166;10.322;2024-03-23T07:06:26;96368.78;;;4.14;80.01
26865;BME280;40618;51.166;10.322;2024-03-23T07:08:54;96377.47;;;4.08;79.86
26865;BME280;40618;51.166;10.322;2024-03-23T07:11:21;96385.38;;;3.97;80.04
26865;BME280;40618;51.166;10.322;2024-03-23T07:13:50;96379.38;;;3.98;79.82
26865;BME280;40618;51.166;10.322;2024-03-23T07:16:16;96392.91;;;4.05;80.07
26865;BME280;40618;51.166;10.322;2024-03-23T07:18:42;96395.34;;;4.10;80.04
26865;BME280;40618;51.166;10.322;2024-03-23T07:21:08;96390.47;;;3.99;79.51
26865;BME280;40618;51.166;10.322;2024-03-23T07:23:34;96400.97;;;3.86;79.87
26865;BME280;40618;51.166;10.322;2024-03-23T07:26:04;96388.34;;;3.77;79.54
26865;BME280;40618;51.166;10.322;2024-03-23T07:28:34;96396.25;;;3.65;80.02
26865;BME280;40618;51.166;10.322;2024-03-23T07:31:07;96403.94;;;3.66;79.85
26865;BME280;40618;51.166;10.322;2024-03-23T07:33:35;96408.88;;;3.74;80.33
26865;BME280;40618;51.166;10.322;2024-03-23T07:36:02;96421.00;;;3.66;79.91
26865;BME280;40618;51.166;10.322;2024-03-23T07:38:29;96417.72;;;3.59;79.75
26865;BME280;40618;51.166;10.322;2024-03-23T07:41:04;96429.72;;;3.57;79.75
26865;BME280;40618;51.166;10.322;2024-03-23T07:43:38;96429.09;;;3.43;80.53
26865;BME280;40618;51.166;10.322;2024-03-23T07:46:04;96428.25;;;3.44;79.97
26865;BME280;40618;51.166;10.322;2024-03-23T07:48:30;96428.13;;;3.50;80.11
26865;BME280;40618;51.166;10.322;2024-03-23T07:53:36;96440.00;;;3.52;80.30
26865;BME280;40618;51.166;10.322;2024-03-23T07:56:06;96445.13;;;3.52;80.61
26865;BME280;40618;51.166;10.322;2024-03-23T07:58:33;96448.59;;;3.50;80.49
26865;BME280;40618;51.166;10.322;2024-03-23T08:01:06;96451.91;;;3.55;80.18
26865;BME280;40618;51.166;10.322;2024-03-23T08:03:33;96451.06;;;3.56;81.00
26865;BME280;40618;51.166;10.322;2024-03-23T08:06:18;96451.06;;;3.56;80.63
26865;BME280;40618;51.166;10.322;2024-03-23T08:08:57;96448.50;;;3.56;80.94
26865;BME280;40618;51.166;10.322;2024-03-23T08:11:30;96460.47;;;3.55;81.10
26865;BME280;40618;51.166;10.322;2024-03-23T08:13:57;96461.22;;;3.59;80.28
26865;BME280;40618;51.166;10.322;2024-03-23T08:16:23;96461.19;;;3.61;80.73
26865;BME280;40618;51.166;10.322;2024-03-23T08:18:53;96474.06;;;3.58;80.54
26865;BME280;40618;51.166;10.322;2024-03-23T08:21:20;96476.53;;;3.62;81.16
26865;BME280;40618;51.166;10.322;2024-03-23T08:23:46;96492.81;;;3.58;80.69
26865;BME280;40618;51.166;10.322;2024-03-23T08:26:13;96486.78;;;3.61;81.26
26865;BME280;40618;51.166;10.322;2024-03-23T08:28:40;96491.00;;;3.63;81.08
26865;BME280;40618;51.166;10.322;2024-03-23T08:31:10;96484.19;;;3.62;81.52
26865;BME280;40618;51.166;10.322;2024-03-23T08:33:37;96495.16;;;3.72;81.73
26865;BME280;40618;51.166;10.322;2024-03-23T08:36:08;96498.22;;;3.89;81.11
26865;BME280;40618;51.166;10.322;2024-03-23T08:38:35;96493.84;;;3.95;81.07
26865;BME280;40618;51.166;10.322;2024-03-23T08:41:05;96499.69;;;4.01;81.58
26865;BME280;40618;51.166;10.322;2024-03-23T08:43:34;96508.97;;;4.07;81.49
26865;BME280;40618;51.166;10.322;2024-03-23T08:46:05;96517.69;;;3.98;81.32
26865;BME280;40618;51.166;10.322;2024-03-23T08:48:42;96523.91;;;3.85;80.99
26865;BME280;40618;51.166;10.322;2024-03-23T08:51:10;96529.13;;;3.80;80.94
26865;BME280;40618;51.166;10.322;2024-03-23T08:53:36;96531.72;;;3.77;81.28
26865;BME280;40618;51.166;10.322;2024-03-23T08:56:03;96535.22;;;3.75;81.56
26865;BME280;40618;51.166;10.322;2024-03-23T08:58:30;96529.97;;;3.81;81.57
26865;BME280;40618;51.166;10.322;2024-03-23T09:01:04;96530.88;;;3.78;81.25
26865;BME280;40618;51.166;10.322;2024-03-23T09:03:31;96531.75;;;3.76;81.51
26865;BME280;40618;51.166;10.322;2024-03-23T09:05:57;96523.19;;;3.78;81.30
26865;BME280;40618;51.166;10.322;2024-03-23T09:08:24;96527.44;;;3.79;81.14
26865;BME280;40618;51.166;10.322;2024-03-23T09:10:50;96535.16;;;3.78;81.40
26865;BME280;40618;51.166;10.322;2024-03-23T09:13:15;96523.13;;;3.83;81.61
26865;BME280;40618;51.166;10.322;2024-03-23T09:15:49;96534.94;;;3.90;81.78
26865;BME280;40618;51.166;10.322;2024-03-23T09:18:16;96544.22;;;3.96;81.49
26865;BME280;40618;51.166;10.322;2024-03-23T09:20:43;96554.28;;;4.05;81.67
26865;BME280;40618;51.166;10.322;2024-03-23T09:23:09;96556.78;;;4.08;81.52
26865;BME280;40618;51.166;10.322;2024-03-23T09:25:38;96560.19;;;4.09;81.73
26865;BME280;40618;51.166;10.322;2024-03-23T09:28:05;96563.69;;;4.04;82.02
26865;BME280;40618;51.166;10.322;2024-03-23T09:30:34;96558.56;;;4.04;81.61
26865;BME280;40618;51.166;10.322;2024-03-23T09:33:00;96575.63;;;4.05;82.20
26865;BME280;40618;51.166;10.322;2024-03-23T09:35:26;96579.88;;;4.06;81.48
26865;BME280;40618;51.166;10.322;2024-03-23T09:37:52;96585.00;;;4.06;81.56
26865;BME280;40618;51.166;10.322;2024-03-23T09:40:17;96592.75;;;4.03;82.12
26865;BME280;40618;51.166;10.322;2024-03-23T09:42:50;96592.69;;;4.06;82.14
26865;BME280;40618;51.166;10.322;2024-03-23T09:45:27;96599.53;;;4.04;81.95
26865;BME280;40618;51.166;10.322;2024-03-23T09:47:55;96584.97;;;4.08;81.60
26865;BME280;40618;51.166;10.322;2024-03-23T09:50:21;96583.22;;;4.12;81.71
26865;BME280;40618;51.166;10.322;2024-03-23T09:52:48;96582.31;;;4.14;82.07
26865;BME280;40618;51.166;10.322;2024-03-23T09:55:14;96582.25;;;4.17;81.43
26865;BME280;40618;51.166;10.322;2024-03-23T09:57:41;96584.66;;;4.27;82.30
26865;BME280;40618;51.166;10.322;2024-03-23T10:00:07;96575.06;;;4.36;82.07
26865;BME280;40618;51.166;10.322;2024-03-23T10:02:34;96582.28;;;4.60;82.22
26865;BME280;40618;51.166;10.322;2024-03-23T10:05:01;96582.88;;;4.72;81.99
26865;BME280;40618;51.166;10.322;2024-03-23T10:07:27;96576.81;;;4.75;81.84
26865;BME280;40618;51.166;10.322;2024-03-23T10:09:56;96581.88;;;4.78;81.65
26865;BME280;40618;51.166;10.322;2024-03-23T10:12:23;96590.47;;;4.77;81.82
26865;BME280;40618;51.166;10.322;2024-03-23T10:14:49;96578.59;;;4.71;81.51
26865;BME280;40618;51.166;10.322;2024-03-23T10:17:22;96567.69;;;4.62;81.92
26865;BME280;40618;51.166;10.322;2024-03-23T10:19:52;96578.81;;;4.62;81.82
26865;BME280;40618;51.166;10.322;2024-03-23T10:22:19;96582.06;;;4.70;82.00
26865;BME280;40618;51.166;10.322;2024-03-23T10:24:46;96575.25;;;4.69;81.83
26865;BME280;40618;51.166;10.322;2024-03-23T10:27:17;96577.88;;;4.66;81.70
26865;BME280;40618;51.166;10.322;2024-03-23T10:29:50;96588.97;;;4.67;81.76
26865;BME280;40618;51.166;10.322;2024-03-23T10:32:17;96586.41;;;4.67;81.24
26865;BME280;40618;51.166;10.322;2024-03-23T10:34:44;96586.44;;;4.65;81.32
26865;BME280;40618;51.166;10.322;2024-03-23T10:37:10;96593.13;;;4.72;81.95
26865;BME280;40618;51.166;10.322;2024-03-23T10:39:37;96582.75;;;4.79;81.69
26865;BME280;40618;51.166;10.322;2024-03-23T10:42:05;96584.34;;;4.84;81.85
26865;BME280;40618;51.166;10.322;2024-03-23T10:44:36;96590.22;;;4.89;81.96
26865;BME280;40618;51.166;10.322;2024-03-23T10:47:04;96593.53;;;4.93;81.72
26865;BME280;40618;51.166;10.322;2024-03-23T10:49:35;96582.44;;;4.93;81.74
26865;BME280;40618;51.166;10.322;2024-03-23T10:52:04;96585.06;;;4.91;81.53
26865;BME280;40618;51.166;10.322;2024-03-23T10:54:32;96589.50;;;4.83;81.14
26865;BME280;40618;51.166;10.322;2024-03-23T10:59:51;96585.34;;;4.77;81.08
26865;BME280;40618;51.166;10.322;2024-03-23T11:02:21;96591.31;;;4.78;81.04
26865;BME280;40618;51.166;10.322;2024-03-23T11:04:47;96595.56;;;4.79;81.40
26865;BME280;40618;51.166;10.322;2024-03-23T11:07:32;96589.47;;;4.84;81.36
26865;BME280;40618;51.166;10.322;2024-03-23T11:09:59;96584.03;;;4.98;81.69
26865;BME280;40618;51.166;10.322;2024-03-23T11:12:26;96583.00;;;5.05;81.13
26865;BME280;40618;51.166;10.322;2024-03-23T11:15:03;96585.56;;;5.05;81.40
26865;BME280;40618;51.166;10.322;2024-03-23T11:17:31;96599.44;;;4.98;81.29
26865;BME280;40618;51.166;10.322;2024-03-23T11:20:01;96584.91;;;4.97;81.18
26865;BME280;40618;51.166;10.322;2024-03-23T11:25:23;96590.72;;;5.05;80.91
26865;BME280;40618;51.166;10.322;2024-03-23T11:27:52;96582.16;;;5.06;81.27
26865;BME280;40618;51.166;10.322;2024-03-23T11:30:19;96585.69;;;5.01;81.36
26865;BME280;40618;51.166;10.322;2024-03-23T11:32:48;96578.81;;;5.01;81.23
26865;BME280;40618;51.166;10.322;2024-03-23T11:35:45;96571.88;;;5.06;81.10
26865;BME280;40618;51.166;10.322;2024-03-23T11:38:14;96560.56;;;5.15;81.46
26865;BME280;40618;51.166;10.322;2024-03-23T11:40:45;96575.66;;;5.29;81.56
26865;BME280;40618;51.166;10.322;2024-03-23T11:43:17;96573.72;;;5.39;81.16
26865;BME280;40618;51.166;10.322;2024-03-23T11:45:49;96570.91;;;5.50;81.19
26865;BME280;40618;51.166;10.322;2024-03-23T11:48:22;96569.97;;;5.52;80.62
26865;BME280;40618;51.166;10.322;2024-03-23T11:50:50;96566.38;;;5.59;80.59
26865;BME280;40618;51.166;10.322;2024-03-23T11:53:20;96562.81;;;5.65;80.03
26865;BME280;40618;51.166;10.322;2024-03-23T11:55:55;96558.53;;;5.64;79.83
26865;BME280;40618;51.166;10.322;2024-03-23T11:58:22;96548.09;;;5.72;80.01
26865;BME280;40618;51.166;10.322;2024-03-23T12:00:54;96536.69;;;5.82;79.85
26865;BME280;40618;51.166;10.322;2024-03-23T12:03:28;96537.31;;;5.90;79.90
26865;BME280;40618;51.166;10.322;2024-03-23T12:05:57;96537.13;;;6.00;79.95
26865;BME280;40618;51.166;10.322;2024-03-23T12:13:30;96514.91;;;6.30;79.05
26865;BME280;40618;51.166;10.322;2024-03-23T12:16:09;96507.75;;;6.40;79.16
26865;BME280;40618;51.166;10.322;2024-03-23T12:18:40;96511.06;;;6.43;78.91
26865;BME280;40618;51.166;10.322;2024-03-23T12:21:06;96509.31;;;6.46;78.84
26865;BME280;40618;51.166;10.322;2024-03-23T12:23:33;96506.63;;;6.49;78.45
26865;BME280;40618;51.166;10.322;2024-03-23T12:25:59;96508.22;;;6.53;78.23
26865;BME280;40618;51.166;10.322;2024-03-23T12:28:25;96508.19;;;6.54;77.10
26865;BME280;40618;51.166;10.322;2024-03-23T12:30:51;96504.88;;;6.51;77.51
26865;BME280;40618;51.166;10.322;2024-03-23T12:33:18;96514.50;;;6.44;76.88
26865;BME280;40618;51.166;10.322;2024-03-23T12:35:44;96543.03;;;6.35;77.03
26865;BME280;40618;51.166;10.322;2024-03-23T12:38:09;96561.38;;;6.22;76.71
26865;BME280;40618;51.166;10.322;2024-03-23T12:40:35;96557.72;;;5.98;76.48
26865;BME280;40618;51.166;10.322;2024-03-23T12:43:00;96568.03;;;5.62;76.77
26865;BME280;40618;51.166;10.322;2024-03-23T12:45:26;96555.84;;;5.34;76.98
26865;BME280;40618;51.166;10.322;2024-03-23T12:47:52;96549.66;;;5.05;77.19
26865;BME280;40618;51.166;10.322;2024-03-23T12:50:19;96540.63;;;4.89;77.53
26865;BME280;40618;51.166;10.322;2024-03-23T12:52:45;96543.09;;;4.92;78.23
26865;BME280;40618;51.166;10.322;2024-03-23T12:55:11;96535.09;;;5.07;78.62
26865;BME280;40618;51.166;10.322;2024-03-23T12:57:36;96529.50;;;5.26;78.97
26865;BME280;40618;51.166;10.322;2024-03-23T13:00:03;96523.31;;;5.35;78.84
26865;BME280;40618;51.166;10.322;2024-03-23T13:02:29;96542.00;;;5.41;78.89
26865;BME280;40618;51.166;10.322;2024-03-23T13:04:55;96567.75;;;5.37;78.50
26865;BME280;40618;51.166;10.322;2024-03-23T13:07:22;96594.19;;;5.04;78.08
26865;BME280;40618;51.166;10.322;2024-03-23T13:09:51;96612.78;;;4.73;78.02
26865;BME280;40618;51.166;10.322;2024-03-23T13:12:19;96615.84;;;4.47;78.00
26865;BME280;40618;51.166;10.322;2024-03-23T13:14:45;96617.06;;;4.29;78.12
26865;BME280;40618;51.166;10.322;2024-03-23T13:17:12;96623.22;;;4.19;78.76
26865;BME280;40618;51.166;10.322;2024-03-23T13:19:37;96594.19;;;4.17;78.48
26865;BME280;40618;51.166;10.322;2024-03-23T13:22:03;96586.50;;;4.18;79.06
26865;BME280;40618;51.166;10.322;2024-03-23T13:24:30;96593.97;;;4.31;79.14
26865;BME280;40618;51.166;10.322;2024-03-23T13:26:56;96570.69;;;4.42;79.74
26865;BME280;40618;51.166;10.322;2024-03-23T13:29:23;96561.06;;;4.53;79.43
26865;BME280;40618;51.166;10.322;2024-03-23T13:31:49;96564.31;;;4.61;79.52
26865;BME280;40618;51.166;10.322;2024-03-23T13:34:16;96559.81;;;4.71;79.36
26865;BME280;40618;51.166;10.322;2024-03-23T13:36:47;96557.09;;;4.79;79.45
26865;BME280;40618;51.166;10.322;2024-03-23T13:39:14;96560.34;;;4.87;79.59
26865;BME280;40618;51.166;10.322;2024-03-23T13:41:42;96569.59;;;4.94;79.97
26865;BME280;40618;51.166;10.322;2024-03-23T13:44:11;96573.63;;;5.06;79.48
26865;BME280;40618;51.166;10.322;2024-03-23T13:46:41;96568.25;;;5.17;79.72
26865;BME280;40618;51.166;10.322;2024-03-23T13:49:18;96564.56;;;5.27;79.49
26865;BME280;40618;51.166;10.322;2024-03-23T13:51:49;96567.84;;;5.34;79.35
26865;BME280;40618;51.166;10.322;2024-03-23T13:54:15;96550.56;;;5.40;79.49
26865;BME280;40618;51.166;10.322;2024-03-23T13:56:40;96555.63;;;5.43;79.25
26865;BME280;40618;51.166;10.322;2024-03-23T13:59:06;96563.06;;;5.54;79.54
26865;BME280;40618;51.166;10.322;2024-03-23T14:01:32;96564.59;;;5.63;79.09
26865;BME280;40618;51.166;10.322;2024-03-23T14:03:57;96564.38;;;5.71;79.00
26865;BME280;40618;51.166;10.322;2024-03-23T14:06:23;96557.47;;;5.73;79.05
26865;BME280;40618;51.166;10.322;2024-03-23T14:08:49;96555.78;;;5.72;78.51